createdAt,value
2018-05-01T00:00:08.236Z,1.67
2018-05-01T00:02:36.498Z,0.80
2018-05-01T00:05:08.729Z,0.80
2018-05-01T00:07:37.846Z,0.82
2018-05-01T00:10:06.502Z,1.33
2018-05-01T00:12:34.816Z,0.98
2018-05-01T00:15:03.138Z,0.95
2018-05-01T00:17:31.446Z,0.65
2018-05-01T00:25:07.575Z,0.68
2018-05-01T00:27:35.834Z,0.70
2018-05-01T00:30:04.106Z,0.62
2018-05-01T00:32:32.385Z,0.70
2018-05-01T00:35:00.660Z,0.70
2018-05-01T00:37:28.942Z,0.70
2018-05-01T00:39:57.245Z,0.65
2018-05-01T00:42:25.528Z,0.50
2018-05-01T00:44:53.801Z,0.60
2018-05-01T00:47:22.075Z,0.62
2018-05-01T00:49:50.351Z,0.50
2018-05-01T00:52:36.516Z,0.50
2018-05-01T00:55:04.788Z,0.75
2018-05-01T00:57:33.068Z,0.50
2018-05-01T01:00:01.331Z,0.50
2018-05-01T01:02:29.608Z,0.50
2018-05-01T01:04:57.878Z,0.88
2018-05-01T01:07:26.158Z,0.80
2018-05-01T01:09:54.420Z,0.60
2018-05-01T01:12:22.709Z,0.60
2018-05-01T01:14:50.984Z,0.50
2018-05-01T01:17:19.260Z,3.35
2018-05-01T01:19:47.577Z,0.50
2018-05-01T01:22:15.851Z,0.50
2018-05-01T01:24:44.295Z,0.55
2018-05-01T01:27:12.610Z,0.45
2018-05-01T01:29:40.902Z,0.50
2018-05-01T01:32:15.685Z,0.55
2018-05-01T01:34:43.957Z,0.50
2018-05-01T01:37:11.434Z,2.45
2018-05-01T01:39:38.937Z,0.52
2018-05-01T01:42:06.412Z,0.55
2018-05-01T01:44:33.903Z,0.55
2018-05-01T01:47:01.392Z,0.60
2018-05-01T01:49:29.644Z,2.67
2018-05-01T01:51:57.122Z,0.50
2018-05-01T01:54:25.357Z,0.50
2018-05-01T01:56:52.848Z,0.50
2018-05-01T01:59:21.079Z,0.50
2018-05-01T02:01:48.578Z,0.80
2018-05-01T02:04:16.963Z,0.50
2018-05-01T02:06:45.250Z,0.47
2018-05-01T02:09:12.735Z,0.75
2018-05-01T02:11:40.219Z,0.52
2018-05-01T02:14:07.785Z,0.40
2018-05-01T02:16:35.277Z,0.60
2018-05-01T02:19:03.513Z,0.65
2018-05-01T02:21:31.053Z,0.80
2018-05-01T02:23:58.521Z,0.50
2018-05-01T02:26:26.025Z,0.62
2018-05-01T02:28:54.242Z,0.40
2018-05-01T02:31:21.736Z,0.50
2018-05-01T02:33:50.025Z,0.40
2018-05-01T02:36:18.686Z,0.40
2018-05-01T02:38:46.170Z,0.40
2018-05-01T02:41:14.450Z,0.50
2018-05-01T02:43:41.892Z,0.50
2018-05-01T02:46:10.106Z,0.50
2018-05-01T02:48:37.660Z,2.25
2018-05-01T02:51:05.145Z,0.50
2018-05-01T02:53:32.621Z,0.40
2018-05-01T02:56:00.961Z,0.50
2018-05-01T02:58:28.457Z,0.40
2018-05-01T03:00:56.680Z,0.50
2018-05-01T03:03:24.345Z,1.70
2018-05-01T03:05:51.818Z,0.50
2018-05-01T03:08:19.316Z,0.50
2018-05-01T03:10:47.548Z,0.50
2018-05-01T03:13:15.038Z,1.05
2018-05-01T03:15:43.279Z,0.50
2018-05-01T03:18:10.788Z,1.35
2018-05-01T03:20:38.278Z,0.50
2018-05-01T03:23:05.770Z,0.60
2018-05-01T03:25:33.251Z,1.75
2018-05-01T03:28:01.478Z,0.50
2018-05-01T03:30:28.973Z,0.60
2018-05-01T03:32:57.257Z,0.60
2018-05-01T03:35:25.737Z,1.98
2018-05-01T03:37:53.996Z,0.60
2018-05-01T03:40:21.462Z,0.55
2018-05-01T03:42:49.710Z,0.50
2018-05-01T03:45:17.197Z,0.60
2018-05-01T03:47:45.429Z,0.60
2018-05-01T03:50:12.916Z,0.60
2018-05-01T03:52:40.414Z,0.60
2018-05-01T03:55:07.885Z,0.70
2018-05-01T03:57:35.357Z,0.95
2018-05-01T04:00:02.864Z,0.65
2018-05-01T04:02:31.125Z,0.60
2018-05-01T04:04:59.385Z,0.60
2018-05-01T04:07:27.898Z,0.50
2018-05-01T04:09:57.093Z,0.57
2018-05-01T04:12:25.320Z,0.60
2018-05-01T04:14:52.817Z,0.60
2018-05-01T04:17:21.031Z,0.80
2018-05-01T04:19:48.513Z,0.68
2018-05-01T04:22:15.994Z,2.55
2018-05-01T04:24:44.256Z,0.80
2018-05-01T04:27:12.502Z,0.80
2018-05-01T04:29:40.006Z,0.77
2018-05-01T04:32:08.271Z,0.70
2018-05-01T04:34:36.522Z,2.15
2018-05-01T04:37:04.040Z,0.80
2018-05-01T04:39:31.586Z,0.70
2018-05-01T04:41:59.054Z,0.85
2018-05-01T04:44:26.548Z,0.80
2018-05-01T04:46:54.081Z,0.90
2018-05-01T04:49:21.623Z,0.90
2018-05-01T04:51:49.222Z,0.95
2018-05-01T04:54:16.643Z,1.00
2018-05-01T04:56:44.211Z,1.10
2018-05-01T04:59:11.673Z,1.20
2018-05-01T05:01:39.152Z,1.20
2018-05-01T05:04:06.635Z,1.20
2018-05-01T05:06:34.924Z,1.00
2018-05-01T05:09:02.396Z,1.15
2018-05-01T05:11:29.896Z,1.10
2018-05-01T05:13:57.357Z,1.00
2018-05-01T05:16:24.842Z,1.70
2018-05-01T05:18:53.081Z,1.42
2018-05-01T05:21:20.605Z,1.20
2018-05-01T05:23:48.071Z,1.42
2018-05-01T05:26:15.724Z,1.00
2018-05-01T05:28:43.334Z,1.30
2018-05-01T05:31:10.884Z,1.25
2018-05-01T05:33:38.381Z,1.60
2018-05-01T05:36:05.868Z,1.60
2018-05-01T05:38:33.607Z,1.50
2018-05-01T05:41:01.223Z,1.10
2018-05-01T05:43:28.756Z,1.52
2018-05-01T05:45:56.257Z,1.33
2018-05-01T05:48:24.540Z,1.35
2018-05-01T05:50:52.764Z,1.15
2018-05-01T05:53:20.281Z,1.23
2018-05-01T05:55:47.798Z,1.00
2018-05-01T05:58:15.370Z,1.50
2018-05-01T06:00:43.596Z,1.50
2018-05-01T06:03:11.095Z,1.60
2018-05-01T06:05:39.369Z,1.20
2018-05-01T06:08:07.671Z,1.70
2018-05-01T06:10:35.150Z,1.48
2018-05-01T06:13:02.613Z,1.30
2018-05-01T06:15:30.162Z,1.10
2018-05-01T06:17:57.664Z,1.73
2018-05-01T06:20:25.177Z,1.70
2018-05-01T06:22:52.641Z,1.30
2018-05-01T06:25:20.125Z,1.27
2018-05-01T06:27:47.601Z,1.20
2018-05-01T06:30:15.848Z,1.50
2018-05-01T06:32:43.317Z,1.40
2018-05-01T06:35:10.845Z,1.42
2018-05-01T06:37:38.392Z,1.73
2018-05-01T06:40:05.875Z,1.87
2018-05-01T06:42:33.357Z,1.23
2018-05-01T06:45:01.619Z,1.90
2018-05-01T06:47:29.109Z,1.37
2018-05-01T06:49:57.518Z,1.42
2018-05-01T06:52:25.026Z,1.23
2018-05-01T06:54:53.536Z,1.02
2018-05-01T06:57:21.076Z,1.20
2018-05-01T06:59:48.559Z,1.30
2018-05-01T07:02:16.034Z,0.90
2018-05-01T07:04:43.681Z,1.02
2018-05-01T07:07:11.169Z,1.27
2018-05-01T07:09:38.627Z,1.80
2018-05-01T07:12:06.109Z,1.00
2018-05-01T07:14:34.345Z,2.17
2018-05-01T07:17:01.838Z,1.30
2018-05-01T07:19:30.073Z,1.25
2018-05-01T07:21:57.950Z,1.65
2018-05-01T07:24:25.500Z,1.33
2018-05-01T07:26:53.540Z,1.17
2018-05-01T07:29:22.270Z,1.45
2018-05-01T07:31:49.833Z,1.95
2018-05-01T07:34:17.566Z,3.12
2018-05-01T07:36:45.234Z,0.90
2018-05-01T07:39:12.707Z,1.20
2018-05-01T07:41:40.565Z,1.10
2018-05-01T07:44:09.501Z,1.00
2018-05-01T07:46:37.453Z,0.77
2018-05-01T07:49:05.570Z,0.82
2018-05-01T07:51:33.579Z,0.90
2018-05-01T07:54:01.384Z,0.90
2018-05-01T07:56:29.398Z,0.80
2018-05-01T07:58:56.929Z,0.88
2018-05-01T08:01:24.894Z,0.80
2018-05-01T08:03:53.322Z,1.60
2018-05-01T08:06:21.851Z,2.10
2018-05-01T08:08:49.435Z,1.50
2018-05-01T08:11:17.004Z,2.10
2018-05-01T08:13:44.552Z,1.42
2018-05-01T08:16:12.414Z,0.88
2018-05-01T08:18:39.953Z,0.70
2018-05-01T08:21:07.693Z,0.88
2018-05-01T08:23:35.532Z,0.90
2018-05-01T08:26:03.239Z,0.80
2018-05-01T08:28:30.893Z,0.80
2018-05-01T08:30:58.653Z,0.80
2018-05-01T08:33:26.403Z,1.15
2018-05-01T08:35:54.758Z,1.67
2018-05-01T08:38:22.742Z,0.80
2018-05-01T08:40:51.369Z,0.90
2018-05-01T08:43:20.344Z,1.00
2018-05-01T08:45:48.341Z,1.10
2018-05-01T08:48:15.889Z,0.80
2018-05-01T08:50:44.503Z,1.10
2018-05-01T08:53:12.123Z,1.30
2018-05-01T08:55:40.606Z,0.98
2018-05-01T08:58:08.086Z,0.90
2018-05-01T09:00:36.124Z,0.90
2018-05-01T09:03:03.945Z,1.10
2018-05-01T09:05:32.738Z,0.88
2018-05-01T09:08:01.052Z,0.95
2018-05-01T09:10:28.542Z,0.80
2018-05-01T09:12:56.592Z,0.80
2018-05-01T09:15:29.397Z,0.80
2018-05-01T09:17:57.361Z,1.23
2018-05-01T09:20:25.294Z,1.10
2018-05-01T09:22:53.065Z,1.17
2018-05-01T09:25:20.862Z,1.25
2018-05-01T09:27:48.533Z,1.02
2018-05-01T09:30:16.472Z,1.60
2018-05-01T09:32:45.148Z,1.50
2018-05-01T09:35:12.898Z,1.75
2018-05-01T09:37:40.488Z,1.87
2018-05-01T09:40:08.234Z,3.00
2018-05-01T09:42:35.853Z,2.00
2018-05-01T09:45:03.598Z,1.27
2018-05-01T09:47:31.638Z,1.30
2018-05-01T09:49:59.431Z,1.67
2018-05-01T09:52:28.743Z,1.65
2018-05-01T09:54:57.210Z,1.33
2018-05-01T09:57:25.796Z,1.92
2018-05-01T09:59:54.616Z,1.52
2018-05-01T10:02:23.166Z,1.35
2018-05-01T10:04:51.752Z,1.20
2018-05-01T10:07:20.381Z,1.20
2018-05-01T10:09:48.805Z,1.33
2018-05-01T10:12:17.246Z,1.10
2018-05-01T10:14:46.382Z,1.35
2018-05-01T10:17:14.944Z,1.08
2018-05-01T10:19:43.500Z,1.90
2018-05-01T10:22:13.395Z,1.12
2018-05-01T10:24:41.938Z,1.20
2018-05-01T10:27:10.435Z,2.00
2018-05-01T10:29:38.780Z,1.30
2018-05-01T10:32:08.312Z,2.12
2018-05-01T10:34:37.850Z,2.53
2018-05-01T10:37:06.287Z,1.20
2018-05-01T10:39:35.629Z,1.20
2018-05-01T10:42:04.975Z,3.90
2018-05-01T10:44:33.708Z,4.70
2018-05-01T10:47:03.160Z,1.40
2018-05-01T10:49:31.677Z,1.00
2018-05-01T10:52:00.250Z,1.30
2018-05-01T10:54:28.893Z,1.00
2018-05-01T10:56:58.651Z,1.52
2018-05-01T10:59:27.244Z,1.15
2018-05-01T11:01:55.548Z,1.30
2018-05-01T11:04:25.004Z,1.10
2018-05-01T11:06:53.685Z,1.83
2018-05-01T11:09:22.084Z,1.00
2018-05-01T11:11:50.619Z,0.80
2018-05-01T11:14:19.759Z,1.15
2018-05-01T11:16:49.190Z,1.10
2018-05-01T11:19:17.767Z,1.00
2018-05-01T11:21:46.351Z,1.10
2018-05-01T11:24:14.874Z,2.80
2018-05-01T11:26:43.906Z,8.20
2018-05-01T11:29:13.312Z,4.87
2018-05-01T11:31:41.867Z,1.50
2018-05-01T11:34:11.144Z,1.37
2018-05-01T11:36:40.511Z,1.10
2018-05-01T11:39:08.983Z,1.10
2018-05-01T11:41:38.483Z,1.73
2018-05-01T11:44:06.969Z,1.00
2018-05-01T11:46:35.673Z,0.90
2018-05-01T11:49:04.217Z,2.10
2018-05-01T11:51:32.899Z,1.13
2018-05-01T11:54:01.413Z,1.37
2018-05-01T11:56:29.768Z,1.60
2018-05-01T11:58:58.553Z,1.00
2018-05-01T12:01:27.259Z,2.73
2018-05-01T12:03:55.949Z,1.20
2018-05-01T12:06:24.359Z,1.30
2018-05-01T12:08:53.899Z,1.20
2018-05-01T12:11:22.388Z,1.20
2018-05-01T12:13:50.877Z,3.53
2018-05-01T12:16:19.362Z,0.80
2018-05-01T12:18:47.948Z,1.30
2018-05-01T12:21:17.324Z,1.40
2018-05-01T12:23:46.000Z,1.10
2018-05-01T12:26:14.302Z,1.85
2018-05-01T12:28:43.206Z,1.35
2018-05-01T12:31:12.241Z,1.00
2018-05-01T12:33:40.674Z,1.30
2018-05-01T12:36:09.431Z,1.67
2018-05-01T12:38:37.882Z,1.10
2018-05-01T12:41:07.207Z,2.60
2018-05-01T12:43:35.549Z,1.20
2018-05-01T12:46:04.732Z,1.23
2018-05-01T12:48:33.871Z,4.17
2018-05-01T12:51:02.373Z,2.50
2018-05-01T12:53:30.853Z,1.53
2018-05-01T12:55:59.381Z,1.70
2018-05-01T12:58:28.467Z,1.87
2018-05-01T13:00:57.915Z,1.42
2018-05-01T13:03:27.009Z,1.65
2018-05-01T13:05:55.343Z,1.98
2018-05-01T13:08:24.292Z,4.10
2018-05-01T13:10:53.102Z,1.60
2018-05-01T13:13:21.673Z,1.73
2018-05-01T13:15:50.859Z,1.58
2018-05-01T13:18:19.360Z,2.50
2018-05-01T13:20:48.000Z,1.42
2018-05-01T13:23:17.509Z,1.67
2018-05-01T13:25:45.921Z,1.95
2018-05-01T13:28:15.670Z,2.80
2018-05-01T13:30:44.346Z,2.78
2018-05-01T13:33:12.704Z,2.50
2018-05-01T13:35:41.459Z,1.98
2018-05-01T13:38:09.918Z,1.60
2018-05-01T13:40:38.523Z,1.48
2018-05-01T13:43:06.886Z,1.62
2018-05-01T13:45:36.520Z,1.17
2018-05-01T13:48:05.826Z,1.20
2018-05-01T13:50:34.292Z,2.03
2018-05-01T13:53:02.967Z,1.20
2018-05-01T13:55:31.465Z,1.60
2018-05-01T13:58:00.057Z,2.45
2018-05-01T14:00:29.448Z,1.40
2018-05-01T14:02:57.915Z,5.87
2018-05-01T14:05:30.471Z,1.58
2018-05-01T14:07:58.951Z,2.15
2018-05-01T14:10:27.716Z,1.10
2018-05-01T14:12:56.334Z,4.32
2018-05-01T14:15:25.217Z,1.30
2018-05-01T14:17:53.800Z,2.65
2018-05-01T14:20:22.404Z,1.67
2018-05-01T14:22:50.878Z,5.87
2018-05-01T14:25:19.381Z,1.67
2018-05-01T14:27:54.136Z,1.10
2018-05-01T14:30:22.671Z,1.83
2018-05-01T14:32:51.062Z,1.27
2018-05-01T14:35:20.032Z,1.42
2018-05-01T14:37:48.718Z,1.35
2018-05-01T14:40:17.009Z,1.12
2018-05-01T14:42:47.537Z,1.23
2018-05-01T14:45:15.909Z,3.33
2018-05-01T14:47:45.117Z,2.25
2018-05-01T14:50:13.615Z,2.55
2018-05-01T14:52:42.197Z,1.10
2018-05-01T14:55:11.734Z,1.40
2018-05-01T14:57:40.256Z,4.40
2018-05-01T15:00:09.977Z,3.00
2018-05-01T15:05:45.006Z,1.40
2018-05-01T15:08:13.606Z,2.08
2018-05-01T15:10:47.318Z,1.98
2018-05-01T15:13:15.808Z,1.60
2018-05-01T15:15:45.051Z,1.30
2018-05-01T15:18:13.424Z,2.08
2018-05-01T15:20:41.936Z,1.48
2018-05-01T15:23:10.317Z,2.62
2018-05-01T15:25:38.863Z,1.65
2018-05-01T15:28:07.336Z,1.85
2018-05-01T15:30:35.757Z,1.48
2018-05-01T15:33:05.431Z,1.60
2018-05-01T15:35:33.961Z,1.30
2018-05-01T15:38:03.218Z,1.23
2018-05-01T15:40:32.625Z,1.48
2018-05-01T15:43:01.412Z,0.90
2018-05-01T15:45:29.903Z,1.12
2018-05-01T15:47:58.399Z,1.48
2018-05-01T15:50:26.968Z,2.45
2018-05-01T15:52:55.577Z,1.70
2018-05-01T15:55:24.397Z,1.45
2018-05-01T15:57:53.883Z,1.67
2018-05-01T16:00:22.720Z,1.67
2018-05-01T16:02:51.180Z,4.50
2018-05-01T16:05:19.515Z,1.52
2018-05-01T16:07:48.760Z,3.30
2018-05-01T16:10:17.338Z,1.45
2018-05-01T16:12:45.819Z,4.03
2018-05-01T16:15:14.605Z,3.53
2018-05-01T16:17:43.201Z,1.10
2018-05-01T16:20:12.041Z,1.50
2018-05-01T16:22:41.485Z,1.17
2018-05-01T16:25:10.443Z,1.00
2018-05-01T16:27:39.053Z,2.53
2018-05-01T16:30:07.715Z,1.30
2018-05-01T16:32:36.108Z,1.40
2018-05-01T16:35:04.565Z,1.60
2018-05-01T16:37:33.097Z,1.33
2018-05-01T16:40:02.029Z,1.75
2018-05-01T16:42:30.559Z,1.50
2018-05-01T16:44:59.678Z,1.27
2018-05-01T16:47:28.938Z,1.00
2018-05-01T16:49:57.408Z,1.60
2018-05-01T16:52:27.031Z,1.70
2018-05-01T16:54:55.535Z,1.55
2018-05-01T16:57:24.112Z,2.05
2018-05-01T16:59:52.503Z,1.50
2018-05-01T17:02:20.881Z,1.60
2018-05-01T17:04:49.438Z,1.30
2018-05-01T17:07:18.071Z,1.35
2018-05-01T17:09:48.135Z,1.90
2018-05-01T17:12:16.950Z,2.55
2018-05-01T17:14:49.486Z,2.40
2018-05-01T17:17:18.046Z,1.25
2018-05-01T17:19:46.528Z,1.20
2018-05-01T17:22:15.138Z,1.45
2018-05-01T17:24:43.730Z,5.22
2018-05-01T17:27:12.239Z,3.85
2018-05-01T17:29:40.775Z,1.52
2018-05-01T17:32:09.122Z,1.10
2018-05-01T17:34:38.326Z,1.98
2018-05-01T17:37:07.036Z,1.42
2018-05-01T17:39:35.840Z,1.42
2018-05-01T17:42:04.303Z,2.45
2018-05-01T17:44:32.659Z,2.90
2018-05-01T17:47:01.033Z,2.00
2018-05-01T17:49:30.465Z,2.50
2018-05-01T17:51:59.165Z,1.17
2018-05-01T17:54:28.098Z,5.00
2018-05-01T17:56:56.620Z,1.35
2018-05-01T17:59:25.149Z,2.47
2018-05-01T18:01:54.330Z,1.85
2018-05-01T18:04:22.847Z,1.20
2018-05-01T18:06:52.276Z,1.50
2018-05-01T18:09:20.792Z,3.72
2018-05-01T18:11:50.283Z,2.28
2018-05-01T18:14:18.661Z,1.37
2018-05-01T18:16:47.351Z,1.95
2018-05-01T18:19:16.103Z,5.97
2018-05-01T18:21:45.013Z,1.80
2018-05-01T18:24:14.351Z,1.45
2018-05-01T18:26:44.031Z,1.60
2018-05-01T18:29:12.460Z,4.50
2018-05-01T18:31:41.228Z,5.45
2018-05-01T18:34:10.136Z,3.50
2018-05-01T18:36:38.541Z,3.03
2018-05-01T18:39:12.211Z,3.45
2018-05-01T18:41:41.092Z,3.30
2018-05-01T18:44:11.593Z,3.75
2018-05-01T18:46:40.291Z,1.87
2018-05-01T18:49:09.583Z,1.60
2018-05-01T18:51:38.943Z,1.67
2018-05-01T18:54:08.456Z,1.75
2018-05-01T18:56:36.841Z,1.67
2018-05-01T18:59:05.794Z,4.80
2018-05-01T19:01:34.471Z,3.17
2018-05-01T19:04:03.794Z,3.30
2018-05-01T19:06:32.352Z,2.90
2018-05-01T19:09:01.626Z,3.60
2018-05-01T19:11:30.263Z,5.28
2018-05-01T19:13:59.047Z,2.10
2018-05-01T19:16:27.459Z,3.42
2018-05-01T19:18:56.252Z,5.85
2018-05-01T19:21:24.679Z,2.08
2018-05-01T19:23:53.028Z,2.30
2018-05-01T19:26:21.715Z,2.40
2018-05-01T19:28:50.459Z,1.33
2018-05-01T19:31:19.861Z,1.95
2018-05-01T19:33:50.127Z,1.87
2018-05-01T19:36:18.621Z,2.05
2018-05-01T19:38:47.070Z,3.05
2018-05-01T19:41:15.595Z,2.03
2018-05-01T19:43:44.387Z,2.30
2018-05-01T19:46:12.957Z,2.47
2018-05-01T19:48:42.002Z,4.40
2018-05-01T19:51:10.978Z,2.40
2018-05-01T19:53:39.644Z,2.87
2018-05-01T19:56:08.358Z,2.80
2018-05-01T19:58:37.141Z,2.00
2018-05-01T20:01:05.697Z,1.73
2018-05-01T20:03:34.335Z,4.05
2018-05-01T20:06:02.985Z,1.98
2018-05-01T20:08:31.582Z,2.15
2018-05-01T20:11:00.438Z,2.22
2018-05-01T20:13:29.115Z,2.37
2018-05-01T20:15:57.458Z,3.22
2018-05-01T20:18:26.652Z,3.22
2018-05-01T20:20:55.139Z,2.20
2018-05-01T20:23:23.663Z,3.83
2018-05-01T20:25:52.049Z,2.33
2018-05-01T20:28:20.613Z,2.62
2018-05-01T20:30:49.096Z,2.42
2018-05-01T20:33:17.740Z,2.75
2018-05-01T20:35:47.092Z,1.73
2018-05-01T20:38:15.414Z,2.33
2018-05-01T20:40:44.756Z,5.78
2018-05-01T20:43:13.061Z,2.60
2018-05-01T20:45:41.746Z,1.92
2018-05-01T20:48:10.301Z,4.65
2018-05-01T20:50:39.141Z,2.33
2018-05-01T20:53:07.799Z,2.87
2018-05-01T20:55:36.388Z,4.30
2018-05-01T20:58:04.747Z,3.35
2018-05-01T21:00:33.115Z,4.32
2018-05-01T21:03:01.375Z,4.00
2018-05-01T21:05:29.638Z,3.78
2018-05-01T21:07:58.231Z,4.03
2018-05-01T21:10:26.546Z,4.30
2018-05-01T21:12:54.841Z,3.83
2018-05-01T21:15:23.912Z,4.32
2018-05-01T21:17:52.211Z,4.80
2018-05-01T21:20:21.249Z,4.72
2018-05-01T21:22:49.560Z,5.40
2018-05-01T21:25:17.815Z,5.53
2018-05-01T21:27:46.141Z,4.55
2018-05-01T21:30:15.163Z,6.22
2018-05-01T21:32:43.441Z,4.07
2018-05-01T21:35:11.709Z,5.47
2018-05-01T21:37:40.021Z,4.53
2018-05-01T21:40:08.298Z,4.57
2018-05-01T21:42:36.547Z,4.75
2018-05-01T21:45:04.850Z,4.45
2018-05-01T21:47:33.107Z,4.05
2018-05-01T21:50:01.959Z,4.47
2018-05-01T21:52:30.230Z,4.55
2018-05-01T21:54:59.308Z,3.80
2018-05-01T21:57:27.687Z,5.30
2018-05-01T21:59:56.731Z,3.58
2018-05-01T22:02:25.002Z,4.40
2018-05-01T22:04:53.269Z,3.53
2018-05-01T22:07:21.522Z,4.37
2018-05-01T22:09:49.818Z,5.37
2018-05-01T22:12:18.071Z,5.65
2018-05-01T22:14:46.383Z,4.20
2018-05-01T22:17:14.643Z,4.65
2018-05-01T22:19:42.922Z,4.00
2018-05-01T22:22:11.204Z,6.75
2018-05-01T22:24:39.500Z,5.62
2018-05-01T22:27:07.757Z,4.05
2018-05-01T22:29:36.061Z,3.97
2018-05-01T22:32:04.932Z,4.05
2018-05-01T22:34:33.214Z,4.28
2018-05-01T22:37:01.532Z,5.07
2018-05-01T22:39:30.572Z,6.20
2018-05-01T22:41:58.853Z,5.12
2018-05-01T22:44:27.214Z,4.68
2018-05-01T22:46:55.490Z,7.22
2018-05-01T22:49:23.857Z,4.90
2018-05-01T22:51:52.154Z,4.07
2018-05-01T22:54:20.438Z,4.20
2018-05-01T22:56:48.719Z,4.72
2018-05-01T22:59:17.783Z,6.47
2018-05-01T23:01:46.173Z,3.90
2018-05-01T23:04:14.485Z,4.20
2018-05-01T23:06:42.713Z,6.07
2018-05-01T23:09:10.964Z,4.72
2018-05-01T23:11:39.223Z,4.45
2018-05-01T23:14:08.724Z,4.95
2018-05-01T23:16:37.758Z,3.17
2018-05-01T23:19:06.061Z,3.85
2018-05-01T23:21:34.462Z,2.95
2018-05-01T23:24:03.482Z,3.65
2018-05-01T23:26:31.759Z,3.92
2018-05-01T23:29:00.052Z,3.53
2018-05-01T23:31:28.326Z,3.53
2018-05-01T23:33:56.585Z,4.20
2018-05-01T23:36:24.851Z,3.12
2018-05-01T23:38:53.114Z,4.37
2018-05-01T23:41:22.165Z,3.90
2018-05-01T23:43:50.437Z,4.32
2018-05-01T23:46:18.678Z,4.15
2018-05-01T23:48:46.943Z,5.12
2018-05-01T23:51:15.193Z,4.03
2018-05-01T23:53:44.350Z,3.62
2018-05-01T23:56:12.698Z,4.32
2018-05-01T23:58:40.979Z,3.87
